This is the latest recevied weather packets stored in our database for station/object KO4ZGL-13. If no packets are shown the sender has not sent any weather packets the latest 10 day(s).
| Time | Temp. | Humidity | Pressure | Rain* | Wind** | Luminosity | Snow |
|---|---|---|---|---|---|---|---|
| 1778095470 | 30° C | 56% | 1015 hPa | 0 mm | - | 637 W/m² | - |
| 1778095166 | 30° C | 55% | 1015.1 hPa | 0 mm | - | 599 W/m² | - |
| 1778094862 | 30° C | 54% | 1014.9 hPa | 0 mm | - | 625 W/m² | - |
| 1778094554 | 30° C | 56% | 1015.2 hPa | 0 mm | - | 568 W/m² | - |
| 1778094251 | 30° C | 56% | 1015.4 hPa | 0 mm | - | 603 W/m² | - |
| 1778093948 | 30° C | 56% | 1015.3 hPa | 0 mm | - | 543 W/m² | - |
| 1778093645 | 29.44° C | 58% | 1015.4 hPa | 0 mm | - | 456 W/m² | - |
| 1778093342 | 29.44° C | 57% | 1015.5 hPa | 0 mm | - | 369 W/m² | - |
| 1778093039 | 29.44° C | 57% | 1015.7 hPa | 0 mm | - | 629 W/m² | - |
| 1778092736 | 29.44° C | 56% | 1015.5 hPa | 0 mm | - | 317 W/m² | - |
| 1778092431 | 29.44° C | 56% | 1015.5 hPa | 0 mm | - | 687 W/m² | - |
| 1778092129 | 30.56° C | 55% | 1015.8 hPa | 0 mm | - | 590 W/m² | - |
| 1778091826 | 30° C | 57% | 1016.1 hPa | 0 mm | - | 689 W/m² | - |
| 1778091523 | 28.89° C | 59% | 1016.1 hPa | 0 mm | - | 681 W/m² | - |
| 1778091221 | 28.89° C | 57% | 1016.1 hPa | 0 mm | - | 301 W/m² | - |
| 1778090918 | 29.44° C | 57% | 1016.3 hPa | 0 mm | - | 485 W/m² | - |
| 1778090614 | 29.44° C | 58% | 1016.6 hPa | 0 mm | - | 594 W/m² | - |
| 1778090310 | 29.44° C | 59% | 1016.6 hPa | 0 mm | - | 618 W/m² | - |
| 1778090007 | 29.44° C | 57% | 1016.8 hPa | 0 mm | - | 706 W/m² | - |
| 1778089704 | 28.89° C | 59% | 1016.5 hPa | 0 mm | - | 681 W/m² | - |
| 1778089402 | 28.33° C | 59% | 1016.7 hPa | 0 mm | - | 619 W/m² | - |
| 1778089099 | 27.78° C | 62% | 1016.7 hPa | 0 mm | - | 649 W/m² | - |
| 1778088796 | 28.33° C | 61% | 1016.8 hPa | 0 mm | - | 382 W/m² | - |
| 1778088493 | 28.89° C | 60% | 1016.6 hPa | 0 mm | - | 423 W/m² | - |
| 1778088189 | 28.33° C | 60% | 1016.9 hPa | 0 mm | - | 527 W/m² | - |
* Rain latest hour (hover to see other rain measurements)
** Current wind speed in m/s (hover to see current wind gust speed)